Time;durP1;ratioP1;P1;durP2;ratioP2;P2;SDS_P1;SDS_P2;PMS_P1;PMS_P2;Temp;Humidity;BMP_temperature;BMP_pressure;BME280_temperature;BME280_humidity;BME280_pressure;Samples;Min_cycle;Max_cycle;Signal;HPM_P1;HPM_P2
2022/06/22 00:01:46;;;;;;;2.88;1.38;;;;;;;;;;4932816;29;20061;-70
2022/06/22 00:04:17;;;;;;;3.85;1.40;;;;;;;;;;4938875;28;20059;-67
2022/06/22 00:06:45;;;;;;;3.15;1.50;;;;;;;;;;4912275;29;20064;-67
2022/06/22 00:09:12;;;;;;;;;;;;;;;;;;4922178;29;20054;-67
2022/06/22 00:11:43;;;;;;;2.97;1.50;;;;;;;;;;4922014;29;19923;-66
2022/06/22 00:14:17;;;;;;;3.10;1.38;;;;;;;;;;4928066;28;20059;-68
2022/06/22 00:16:49;;;;;;;5.25;1.90;;;;;;;;;;4948954;29;20051;-67
2022/06/22 00:19:19;;;;;;;6.43;1.67;;;;;;;;;;4927346;29;20051;-66
2022/06/22 00:21:46;;;;;;;3.72;1.58;;;;;;;;;;4932511;29;20055;-67
2022/06/22 00:24:32;;;;;;;4.00;1.48;;;;;;;;;;4927478;29;20061;-68
2022/06/22 00:27:14;;;;;;;5.00;1.60;;;;;;;;;;4932121;29;20051;-66
2022/06/22 00:29:40;;;;;;;3.35;1.38;;;;;;;;;;4933581;29;20070;-68
2022/06/22 00:32:14;;;;;;;2.40;1.20;;;;;;;;;;4948235;29;20054;-66
2022/06/22 00:34:41;;;;;;;3.95;1.90;;;;;;;;;;4941805;29;20047;-68
2022/06/22 00:37:13;;;;;;;3.65;1.50;;;;;;;;;;4917054;29;20128;-69
2022/06/22 00:39:42;;;;;;;4.88;2.00;;;;;;;;;;4921290;29;20052;-65
2022/06/22 00:42:33;;;;;;;3.05;1.52;;;;;;;;;;4930928;29;20047;-70
2022/06/22 00:45:02;;;;;;;3.25;1.40;;;;;;;;;;4906040;29;20066;-68
2022/06/22 00:47:31;;;;;;;4.07;1.50;;;;;;;;;;4917355;29;20063;-67
2022/06/22 00:50:03;;;;;;;2.80;1.30;;;;;;;;;;4911346;29;20055;-70
2022/06/22 00:52:35;;;;;;;4.10;1.58;;;;;;;;;;4931362;29;20057;-69
2022/06/22 00:55:02;;;;;;;4.00;1.42;;;;;;;;;;4923456;29;20048;-69
2022/06/22 00:57:34;;;;;;;3.47;1.70;;;;;;;;;;4920602;29;20051;-70
2022/06/22 01:00:03;;;;;;;3.72;1.70;;;;;;;;;;4916067;29;20044;-69
2022/06/22 01:02:33;;;;;;;4.03;1.27;;;;;;;;;;4928533;29;20131;-69
2022/06/22 01:05:07;;;;;;;8.20;2.40;;;;;;;;;;4919707;29;20051;-67
2022/06/22 01:07:39;;;;;;;7.00;1.73;;;;;;;;;;4930038;29;20051;-68
2022/06/22 01:10:10;;;;;;;3.20;1.70;;;;;;;;;;4921768;29;20071;-66
2022/06/22 01:12:41;;;;;;;4.28;1.83;;;;;;;;;;4944199;29;20105;-66
2022/06/22 01:15:12;;;;;;;7.07;2.17;;;;;;;;;;4924043;28;20110;-68
2022/06/22 01:17:44;;;;;;;3.70;1.73;;;;;;;;;;4928002;29;20055;-66
2022/06/22 01:20:13;;;;;;;7.75;1.40;;;;;;;;;;4928215;29;20162;-65
2022/06/22 01:22:39;;;;;;;;;;;;;;;;;;4924416;29;20061;-65
2022/06/22 01:25:14;;;;;;;2.58;1.42;;;;;;;;;;4928089;29;19930;-66
2022/06/22 01:27:43;;;;;;;3.30;1.70;;;;;;;;;;4924902;29;20055;-67
2022/06/22 01:30:20;;;;;;;4.47;1.13;;;;;;;;;;4929017;29;20053;-68
2022/06/22 01:32:47;;;;;;;2.83;1.40;;;;;;;;;;4923717;29;20051;-67
2022/06/22 01:35:15;;;;;;;5.72;2.33;;;;;;;;;;4927084;29;20051;-67
2022/06/22 01:37:44;;;;;;;3.15;1.55;;;;;;;;;;4922745;29;20051;-69
2022/06/22 01:40:14;;;;;;;2.67;1.58;;;;;;;;;;4926473;29;20055;-67
2022/06/22 01:42:45;;;;;;;6.22;1.45;;;;;;;;;;4923863;29;20055;-68
2022/06/22 01:45:14;;;;;;;6.05;1.70;;;;;;;;;;4928822;29;20059;-68
2022/06/22 01:47:42;;;;;;;6.90;2.13;;;;;;;;;;4923708;29;20055;-67
2022/06/22 01:50:13;;;;;;;3.10;1.63;;;;;;;;;;4930747;29;20043;-68
2022/06/22 01:52:55;;;;;;;3.88;1.70;;;;;;;;;;4927104;29;20051;-65
2022/06/22 01:55:25;;;;;;;2.78;1.60;;;;;;;;;;4929972;29;20138;-69
2022/06/22 01:57:56;;;;;;;4.72;1.52;;;;;;;;;;4926813;29;20058;-69
2022/06/22 02:00:25;;;;;;;3.35;1.55;;;;;;;;;;4932159;29;20049;-66
2022/06/22 02:02:51;;;;;;;;;;;;;;;;;;4910040;29;20133;-68
2022/06/22 02:05:22;;;;;;;3.00;1.42;;;;;;;;;;4951336;29;19927;-67
2022/06/22 02:07:52;;;;;;;4.00;1.55;;;;;;;;;;4931254;28;20067;-65
2022/06/22 02:10:23;;;;;;;2.78;1.67;;;;;;;;;;4950711;29;20052;-65
2022/06/22 02:13:02;;;;;;;5.65;2.25;;;;;;;;;;4930438;29;20122;-64
2022/06/22 02:15:41;;;;;;;5.07;2.10;;;;;;;;;;4950355;29;20504;-67
2022/06/22 02:18:10;;;;;;;3.17;1.42;;;;;;;;;;4943991;29;20106;-66
2022/06/22 02:20:39;;;;;;;6.28;1.75;;;;;;;;;;4950047;29;20063;-65
2022/06/22 02:23:15;;;;;;;4.30;1.63;;;;;;;;;;4945727;29;20106;-64
2022/06/22 02:25:44;;;;;;;3.30;1.65;;;;;;;;;;4950349;29;20054;-65
2022/06/22 02:28:10;;;;;;;2.80;1.50;;;;;;;;;;4945391;29;20128;-64
2022/06/22 02:30:39;;;;;;;12.90;3.13;;;;;;;;;;4950096;29;20077;-67
2022/06/22 02:33:08;;;;;;;5.35;1.45;;;;;;;;;;4950052;29;20055;-64
2022/06/22 02:35:36;;;;;;;;;;;;;;;;;;4931821;29;20137;-64
2022/06/22 02:38:05;;;;;;;5.80;1.77;;;;;;;;;;4934351;29;20013;-66
2022/06/22 02:40:34;;;;;;;4.60;1.85;;;;;;;;;;4928929;29;20055;-66
2022/06/22 02:45:46;;;;;;;4.43;1.85;;;;;;;;;;4928937;29;20050;-64
2022/06/22 02:48:23;;;;;;;3.60;1.67;;;;;;;;;;4933890;29;20061;-68
2022/06/22 02:50:52;;;;;;;3.67;1.70;;;;;;;;;;4929055;29;20055;-65
2022/06/22 02:53:23;;;;;;;9.45;2.63;;;;;;;;;;4934318;29;20058;-64
2022/06/22 02:55:50;;;;;;;3.38;1.77;;;;;;;;;;4926917;29;20059;-66
2022/06/22 02:58:25;;;;;;;6.15;2.17;;;;;;;;;;4934003;28;20047;-65
2022/06/22 03:00:53;;;;;;;7.50;2.17;;;;;;;;;;4919569;29;20062;-65
2022/06/22 03:03:20;;;;;;;4.40;1.52;;;;;;;;;;4933305;29;20055;-65
2022/06/22 03:05:49;;;;;;;4.40;1.90;;;;;;;;;;4927722;29;20061;-64
2022/06/22 03:08:18;;;;;;;3.10;1.67;;;;;;;;;;4933575;29;20055;-66
2022/06/22 03:10:48;;;;;;;8.00;2.90;;;;;;;;;;4924232;29;20051;-67
2022/06/22 03:13:17;;;;;;;4.88;1.88;;;;;;;;;;4929914;29;20062;-66
2022/06/22 03:15:43;;;;;;;;;;;;;;;;;;4928654;29;20062;-67
2022/06/22 03:18:14;;;;;;;3.58;1.45;;;;;;;;;;4933673;29;19923;-66
2022/06/22 03:20:43;;;;;;;6.03;2.35;;;;;;;;;;4929952;29;20067;-65
2022/06/22 03:23:15;;;;;;;3.13;1.85;;;;;;;;;;4949170;29;20059;-66
2022/06/22 03:25:45;;;;;;;5.97;2.45;;;;;;;;;;4942752;29;20139;-65
2022/06/22 03:28:14;;;;;;;5.63;1.70;;;;;;;;;;4941714;29;20050;-65
2022/06/22 03:30:45;;;;;;;6.88;2.10;;;;;;;;;;4928065;29;20061;-65
2022/06/22 03:33:14;;;;;;;3.20;1.60;;;;;;;;;;4948745;29;20051;-65
2022/06/22 03:35:43;;;;;;;3.20;1.60;;;;;;;;;;4942971;28;20047;-68
2022/06/22 03:38:12;;;;;;;3.55;1.63;;;;;;;;;;4924104;29;20062;-64
2022/06/22 03:40:43;;;;;;;5.78;1.80;;;;;;;;;;4913506;29;20119;-65
2022/06/22 03:43:11;;;;;;;7.90;2.28;;;;;;;;;;4927583;29;20055;-67
2022/06/22 03:45:40;;;;;;;6.43;1.98;;;;;;;;;;4931073;29;20059;-65
2022/06/22 03:48:11;;;;;;;3.72;1.73;;;;;;;;;;4928337;29;20051;-66
2022/06/22 03:50:42;;;;;;;4.13;1.83;;;;;;;;;;4932585;29;20047;-68
2022/06/22 03:53:13;;;;;;;2.92;1.60;;;;;;;;;;4938569;29;20055;-67
2022/06/22 03:55:41;;;;;;;2.47;1.70;;;;;;;;;;4948251;29;20075;-66
2022/06/22 03:58:08;;;;;;;4.50;1.77;;;;;;;;;;4941898;29;20078;-67
2022/06/22 04:00:36;;;;;;;4.15;1.45;;;;;;;;;;4945710;29;20055;-67
2022/06/22 04:03:05;;;;;;;2.53;1.42;;;;;;;;;;4927380;29;20051;-67
2022/06/22 04:05:32;;;;;;;6.28;1.83;;;;;;;;;;4932061;29;20055;-68
2022/06/22 04:08:00;;;;;;;3.83;1.70;;;;;;;;;;4927430;29;20078;-70
2022/06/22 04:10:34;;;;;;;3.55;1.80;;;;;;;;;;4932447;29;20059;-69
2022/06/22 04:13:02;;;;;;;4.50;1.77;;;;;;;;;;4927627;29;20055;-68
2022/06/22 04:15:31;;;;;;;5.80;2.60;;;;;;;;;;4932312;29;20070;-69
2022/06/22 04:18:02;;;;;;;4.60;1.80;;;;;;;;;;4927257;29;20098;-65
2022/06/22 04:23:17;;;;;;;7.25;2.70;;;;;;;;;;4926338;29;20051;-65
2022/06/22 04:25:43;;;;;;;;;;;;;;;;;;4932051;29;20055;-65
2022/06/22 04:28:11;;;;;;;3.97;1.65;;;;;;;;;;4926748;29;19926;-67
2022/06/22 04:30:41;;;;;;;3.60;1.70;;;;;;;;;;4932058;29;20169;-65
2022/06/22 04:33:09;;;;;;;3.40;1.85;;;;;;;;;;4927007;29;20058;-66
2022/06/22 04:35:38;;;;;;;5.80;2.20;;;;;;;;;;4947669;29;20079;-69
2022/06/22 04:38:10;;;;;;;5.00;1.58;;;;;;;;;;4938496;29;20069;-65
2022/06/22 04:40:43;;;;;;;3.30;1.67;;;;;;;;;;4913633;29;20056;-65
2022/06/22 04:43:10;;;;;;;8.98;2.97;;;;;;;;;;4913205;29;20056;-66
2022/06/22 04:45:38;;;;;;;5.03;2.35;;;;;;;;;;4928692;29;20055;-69
2022/06/22 04:48:07;;;;;;;3.22;1.77;;;;;;;;;;4932244;29;20058;-67
2022/06/22 04:50:34;;;;;;;5.15;2.55;;;;;;;;;;4910303;29;20056;-67
2022/06/22 04:53:03;;;;;;;5.13;2.20;;;;;;;;;;4913970;29;20060;-67
2022/06/22 04:55:31;;;;;;;13.48;4.90;;;;;;;;;;4933369;29;20047;-65
2022/06/22 04:58:02;;;;;;;8.80;4.05;;;;;;;;;;4935933;29;20048;-68
2022/06/22 05:00:31;;;;;;;3.75;1.80;;;;;;;;;;4923880;29;20100;-67
2022/06/22 05:02:59;;;;;;;4.63;2.13;;;;;;;;;;4928646;29;20059;-68
2022/06/22 05:05:27;;;;;;;3.53;1.80;;;;;;;;;;4924642;29;20047;-68
2022/06/22 05:07:55;;;;;;;3.00;1.83;;;;;;;;;;4928569;29;20051;-65
2022/06/22 05:10:28;;;;;;;10.70;3.40;;;;;;;;;;4923283;29;20154;-67
2022/06/22 05:12:56;;;;;;;6.13;1.90;;;;;;;;;;4928636;29;20055;-66
2022/06/22 05:15:27;;;;;;;8.30;2.75;;;;;;;;;;4923667;29;20043;-68
2022/06/22 05:17:54;;;;;;;11.48;6.10;;;;;;;;;;4928770;29;20055;-65
2022/06/22 05:20:25;;;;;;;10.52;4.93;;;;;;;;;;4923473;29;20123;-66
2022/06/22 05:22:54;;;;;;;7.53;3.38;;;;;;;;;;4929046;29;20051;-65
2022/06/22 05:25:22;;;;;;;7.20;3.28;;;;;;;;;;4926273;29;20066;-65
2022/06/22 05:27:54;;;;;;;7.70;3.47;;;;;;;;;;4932874;29;20130;-65
2022/06/22 05:30:22;;;;;;;5.82;2.33;;;;;;;;;;4926237;29;20055;-66
2022/06/22 05:32:51;;;;;;;3.65;1.77;;;;;;;;;;4931550;29;20257;-65
2022/06/22 05:35:21;;;;;;;6.93;2.42;;;;;;;;;;4925922;29;20114;-66
2022/06/22 05:37:50;;;;;;;8.98;3.35;;;;;;;;;;4928285;29;20066;-65
2022/06/22 05:40:18;;;;;;;10.10;3.67;;;;;;;;;;4929561;29;20047;-66
2022/06/22 05:42:44;;;;;;;4.97;2.30;;;;;;;;;;4927961;29;20055;-69
2022/06/22 05:45:14;;;;;;;9.27;2.63;;;;;;;;;;4936093;29;20051;-66
2022/06/22 05:47:41;;;;;;;5.75;2.63;;;;;;;;;;4913831;29;20047;-66
2022/06/22 05:50:13;;;;;;;5.18;2.45;;;;;;;;;;4916084;29;20078;-69
2022/06/22 05:52:42;;;;;;;3.65;1.77;;;;;;;;;;4921221;29;20055;-68
2022/06/22 05:55:14;;;;;;;10.63;2.67;;;;;;;;;;4934884;29;20134;-68
2022/06/22 05:57:47;;;;;;;7.07;2.35;;;;;;;;;;4915709;29;20066;-67
2022/06/22 06:00:16;;;;;;;4.38;2.38;;;;;;;;;;4916115;29;20058;-64
2022/06/22 06:02:45;;;;;;;5.97;2.25;;;;;;;;;;4910069;29;20063;-68
2022/06/22 06:05:18;;;;;;;4.93;2.42;;;;;;;;;;4915721;29;20107;-71
2022/06/22 06:07:46;;;;;;;5.10;2.30;;;;;;;;;;4908626;29;20048;-71
2022/06/22 06:10:15;;;;;;;3.58;2.20;;;;;;;;;;4915883;29;20059;-67
2022/06/22 06:12:43;;;;;;;5.97;2.45;;;;;;;;;;4909658;29;20063;-65
2022/06/22 06:15:11;;;;;;;3.88;2.13;;;;;;;;;;4915581;29;20134;-66
2022/06/22 06:17:39;;;;;;;12.05;3.22;;;;;;;;;;4911239;29;20055;-67
2022/06/22 06:20:07;;;;;;;6.68;2.92;;;;;;;;;;4915980;29;20051;-65
2022/06/22 06:22:36;;;;;;;6.80;3.05;;;;;;;;;;4910876;29;20060;-68
2022/06/22 06:27:49;;;;;;;7.45;2.35;;;;;;;;;;4913598;29;20029;-69
2022/06/22 06:30:23;;;;;;;5.35;2.58;;;;;;;;;;4934825;29;20055;-69
2022/06/22 06:32:53;;;;;;;4.93;2.65;;;;;;;;;;4929030;29;20063;-66
2022/06/22 06:35:23;;;;;;;5.55;2.38;;;;;;;;;;4933350;29;20063;-65
2022/06/22 06:37:57;;;;;;;7.32;3.03;;;;;;;;;;4929273;29;20055;-66
2022/06/22 06:40:26;;;;;;;7.40;2.80;;;;;;;;;;4915884;29;20047;-67
2022/06/22 06:42:57;;;;;;;5.15;2.45;;;;;;;;;;4912172;29;20052;-70
2022/06/22 06:45:26;;;;;;;5.93;2.20;;;;;;;;;;4934074;29;20062;-70
2022/06/22 06:47:56;;;;;;;8.65;2.75;;;;;;;;;;4932401;29;20075;-67
2022/06/22 06:50:25;;;;;;;6.82;2.53;;;;;;;;;;4928457;29;20078;-65
2022/06/22 06:52:57;;;;;;;6.03;2.30;;;;;;;;;;4933676;29;20066;-68
2022/06/22 06:55:29;;;;;;;12.48;2.95;;;;;;;;;;4940225;28;20039;-66
2022/06/22 06:57:59;;;;;;;6.35;2.17;;;;;;;;;;4950124;29;20055;-66
2022/06/22 07:00:26;;;;;;;5.53;2.30;;;;;;;;;;4931556;29;20075;-67
2022/06/22 07:02:53;;;;;;;6.88;2.80;;;;;;;;;;4924136;29;20067;-65
2022/06/22 07:05:22;;;;;;;6.45;2.25;;;;;;;;;;4909289;29;20047;-66
2022/06/22 07:07:48;;;;;;;;;;;;;;;;;;4915235;29;20069;-66
2022/06/22 07:10:17;;;;;;;5.72;2.17;;;;;;;;;;4926489;29;19933;-66
2022/06/22 07:12:49;;;;;;;5.47;1.92;;;;;;;;;;4914943;29;20048;-66
2022/06/22 07:15:18;;;;;;;4.30;2.00;;;;;;;;;;4923154;29;20055;-66
2022/06/22 07:17:44;;;;;;;;;;;;;;;;;;4949842;29;20051;-66
2022/06/22 07:20:16;;;;;;;4.82;1.85;;;;;;;;;;4925867;29;19927;-66
2022/06/22 07:22:45;;;;;;;6.55;2.03;;;;;;;;;;4914634;29;20060;-66
2022/06/22 07:25:11;;;;;;;;;;;;;;;;;;4916283;29;20043;-66
2022/06/22 07:27:40;;;;;;;3.67;1.60;;;;;;;;;;4948637;29;19927;-66
2022/06/22 07:30:12;;;;;;;4.03;1.80;;;;;;;;;;4943433;29;20667;-66
2022/06/22 07:32:42;;;;;;;6.18;1.70;;;;;;;;;;4933597;29;20146;-66
2022/06/22 07:35:12;;;;;;;3.97;1.50;;;;;;;;;;4926603;29;20061;-66
2022/06/22 07:37:41;;;;;;;3.70;1.50;;;;;;;;;;4933460;29;20056;-66
2022/06/22 07:40:12;;;;;;;3.58;1.52;;;;;;;;;;4928661;29;20483;-66
2022/06/22 07:42:39;;;;;;;7.93;1.70;;;;;;;;;;4933563;29;20059;-66
2022/06/22 07:45:06;;;;;;;5.13;1.63;;;;;;;;;;4931327;29;20126;-66
2022/06/22 07:47:36;;;;;;;6.22;1.80;;;;;;;;;;4941320;29;20066;-66
2022/06/22 07:50:07;;;;;;;4.47;1.55;;;;;;;;;;4949296;29;20055;-66
2022/06/22 07:52:38;;;;;;;4.55;1.83;;;;;;;;;;4930655;29;20063;-66
2022/06/22 07:55:15;;;;;;;3.40;1.40;;;;;;;;;;4932506;29;20050;-66
2022/06/22 07:57:47;;;;;;;6.53;1.60;;;;;;;;;;4939877;29;20146;-66
2022/06/22 08:00:15;;;;;;;4.47;1.58;;;;;;;;;;4948458;29;20051;-67
2022/06/22 08:02:49;;;;;;;4.47;1.48;;;;;;;;;;4941479;29;20162;-66
2022/06/22 08:05:19;;;;;;;4.28;1.65;;;;;;;;;;4945833;28;20114;-66
2022/06/22 08:07:50;;;;;;;4.82;1.65;;;;;;;;;;4941492;28;20043;-66
2022/06/22 08:10:19;;;;;;;4.05;1.52;;;;;;;;;;4947956;28;20046;-66
2022/06/22 08:12:49;;;;;;;5.63;1.42;;;;;;;;;;4927247;29;20069;-67
2022/06/22 08:15:16;;;;;;;3.40;1.40;;;;;;;;;;4931949;29;20055;-67
2022/06/22 08:17:44;;;;;;;5.68;1.60;;;;;;;;;;4925980;29;20059;-66
2022/06/22 08:20:14;;;;;;;3.08;1.30;;;;;;;;;;4931971;29;20059;-69
2022/06/22 08:22:42;;;;;;;5.07;1.60;;;;;;;;;;4928143;29;20059;-67
2022/06/22 08:25:10;;;;;;;3.83;1.50;;;;;;;;;;4932246;29;20065;-66
2022/06/22 08:27:37;;;;;;;2.55;1.10;;;;;;;;;;4926374;29;20055;-68
2022/06/22 08:30:09;;;;;;;3.83;1.20;;;;;;;;;;4932399;29;20062;-66
2022/06/22 08:32:39;;;;;;;3.55;1.23;;;;;;;;;;4927268;29;20051;-66
2022/06/22 08:35:08;;;;;;;4.55;1.30;;;;;;;;;;4932299;29;20106;-70
2022/06/22 08:37:38;;;;;;;2.90;1.30;;;;;;;;;;4926766;29;20074;-68
2022/06/22 08:40:12;;;;;;;2.38;1.20;;;;;;;;;;4932364;29;20059;-68
2022/06/22 08:42:45;;;;;;;6.18;1.73;;;;;;;;;;4927025;29;20434;-69
2022/06/22 08:45:19;;;;;;;5.05;1.50;;;;;;;;;;4948714;29;20147;-74
2022/06/22 08:47:53;;;;;;;3.97;1.58;;;;;;;;;;4943866;29;20074;-69
2022/06/22 08:50:38;;;;;;;3.05;1.13;;;;;;;;;;4913048;29;20047;-68
2022/06/22 08:53:16;;;;;;;3.72;1.50;;;;;;;;;;4902921;29;20072;-71
2022/06/22 08:55:50;;;;;;;3.45;1.20;;;;;;;;;;4932617;29;20070;-69
2022/06/22 08:58:25;;;;;;;5.28;1.60;;;;;;;;;;4930206;29;20047;-68
2022/06/22 09:00:56;;;;;;;4.40;1.25;;;;;;;;;;4934530;29;20083;-68
2022/06/22 09:03:31;;;;;;;2.72;0.93;;;;;;;;;;4932271;29;20057;-69
2022/06/22 09:06:05;;;;;;;1.80;0.90;;;;;;;;;;4917421;29;20153;-71
2022/06/22 09:08:47;;;;;;;6.97;1.60;;;;;;;;;;4930601;28;20055;-70
2022/06/22 09:11:19;;;;;;;3.92;1.50;;;;;;;;;;4934540;29;20067;-69
2022/06/22 09:13:55;;;;;;;2.80;1.27;;;;;;;;;;4931705;29;20106;-69
2022/06/22 09:16:27;;;;;;;3.10;1.35;;;;;;;;;;4916933;29;20123;-68
2022/06/22 09:19:02;;;;;;;3.28;1.30;;;;;;;;;;4916435;29;20080;-72
2022/06/22 09:21:32;;;;;;;2.47;1.15;;;;;;;;;;4917018;29;20092;-67
2022/06/22 09:24:07;;;;;;;2.42;1.10;;;;;;;;;;4916276;29;20058;-68
2022/06/22 09:26:36;;;;;;;13.82;1.42;;;;;;;;;;4933810;29;20059;-68
2022/06/22 09:29:09;;;;;;;2.83;1.02;;;;;;;;;;4935931;29;20055;-68
2022/06/22 09:31:50;;;;;;;3.40;1.15;;;;;;;;;;4944540;29;20133;-67
2022/06/22 09:34:32;;;;;;;3.75;1.17;;;;;;;;;;4951527;29;20051;-67
2022/06/22 09:37:16;;;;;;;1.55;0.98;;;;;;;;;;4929829;29;20146;-68
2022/06/22 09:40:02;;;;;;;1.90;1.00;;;;;;;;;;4914242;29;20055;-69
2022/06/22 09:42:54;;;;;;;1.67;0.93;;;;;;;;;;4916643;29;20051;-68
2022/06/22 09:45:27;;;;;;;4.93;1.48;;;;;;;;;;4876849;29;20049;-70
2022/06/22 09:48:18;;;;;;;5.28;1.13;;;;;;;;;;4935467;29;20055;-70
2022/06/22 09:50:59;;;;;;;2.83;1.00;;;;;;;;;;4909792;29;20047;-73
2022/06/22 09:53:36;;;;;;;3.85;1.00;;;;;;;;;;4934854;29;20066;-69
2022/06/22 09:56:20;;;;;;;3.67;1.25;;;;;;;;;;4931761;29;20075;-68
2022/06/22 09:59:14;;;;;;;2.75;1.20;;;;;;;;;;4949553;28;20051;-68
2022/06/22 10:01:49;;;;;;;2.60;1.20;;;;;;;;;;4896236;29;20063;-71
2022/06/22 10:04:34;;;;;;;2.92;1.00;;;;;;;;;;4934607;29;20067;-71
2022/06/22 10:07:12;;;;;;;1.80;0.90;;;;;;;;;;4929691;29;20051;-68
2022/06/22 10:09:39;;;;;;;;;;;;;;;;;;4934200;29;20078;-67
2022/06/22 10:12:13;;;;;;;2.60;0.98;;;;;;;;;;4933449;29;19934;-71
2022/06/22 10:14:46;;;;;;;3.35;1.00;;;;;;;;;;4950383;29;20066;-66
2022/06/22 10:17:22;;;;;;;6.22;1.10;;;;;;;;;;4940701;29;20162;-65
2022/06/22 10:19:55;;;;;;;4.10;1.08;;;;;;;;;;4934730;29;20063;-66
2022/06/22 10:22:33;;;;;;;1.50;0.82;;;;;;;;;;4933271;29;20102;-67
2022/06/22 10:25:18;;;;;;;2.22;0.93;;;;;;;;;;4950790;29;20056;-67
2022/06/22 10:27:55;;;;;;;1.80;0.93;;;;;;;;;;4916691;29;20087;-66
2022/06/22 10:30:24;;;;;;;5.20;1.20;;;;;;;;;;4950376;28;20047;-66
2022/06/22 10:33:12;;;;;;;2.13;0.90;;;;;;;;;;4945209;28;20058;-66
2022/06/22 10:35:39;;;;;;;;;;;;;;;;;;4951557;29;20062;-66
2022/06/22 10:38:12;;;;;;;3.95;0.85;;;;;;;;;;4943855;29;20007;-67
2022/06/22 10:46:27;;;;;;;2.28;1.00;;;;;;;;;;4911367;29;20106;-66
2022/06/22 10:49:02;;;;;;;3.03;1.10;;;;;;;;;;4935856;29;20060;-68
2022/06/22 10:51:40;;;;;;;2.10;0.80;;;;;;;;;;4934054;29;20079;-65
2022/06/22 10:54:22;;;;;;;2.03;0.95;;;;;;;;;;4928125;29;20051;-67
2022/06/22 10:57:04;;;;;;;5.70;1.13;;;;;;;;;;4908191;29;20055;-65
2022/06/22 10:59:50;;;;;;;2.28;1.10;;;;;;;;;;4935956;28;20086;-67
2022/06/22 11:02:35;;;;;;;3.10;1.02;;;;;;;;;;4935711;29;20051;-65
2022/06/22 11:05:20;;;;;;;2.97;1.00;;;;;;;;;;4928349;29;20066;-69
2022/06/22 11:08:10;;;;;;;2.05;0.93;;;;;;;;;;4905331;29;20055;-70
2022/06/22 11:10:46;;;;;;;3.13;1.10;;;;;;;;;;4915247;29;20059;-70
2022/06/22 11:13:30;;;;;;;3.33;1.00;;;;;;;;;;4915043;29;20056;-68
2022/06/22 11:16:06;;;;;;;1.70;0.73;;;;;;;;;;4915038;29;20048;-68
2022/06/22 11:18:51;;;;;;;4.35;1.00;;;;;;;;;;4913044;29;20051;-67
2022/06/22 11:21:23;;;;;;;5.85;1.55;;;;;;;;;;4913484;29;20070;-70
2022/06/22 11:23:59;;;;;;;1.45;0.90;;;;;;;;;;4911020;29;20059;-67
2022/06/22 11:32:39;;;;;;;1.65;1.10;;;;;;;;;;4948638;29;20059;-70
2022/06/22 11:35:17;;;;;;;2.95;1.00;;;;;;;;;;4939551;29;20047;-67
2022/06/22 11:37:49;;;;;;;5.75;1.10;;;;;;;;;;4926761;29;20276;-67
2022/06/22 11:40:30;;;;;;;5.53;0.80;;;;;;;;;;4916694;28;20131;-69
2022/06/22 11:43:04;;;;;;;4.22;1.05;;;;;;;;;;4948689;28;20050;-67
2022/06/22 11:45:54;;;;;;;2.78;0.80;;;;;;;;;;4938855;29;20166;-69
2022/06/22 11:48:45;;;;;;;2.17;1.00;;;;;;;;;;4933150;29;20077;-68
2022/06/22 11:51:15;;;;;;;6.85;1.05;;;;;;;;;;4927721;29;20055;-69
2022/06/22 11:53:49;;;;;;;2.95;1.13;;;;;;;;;;4932803;29;20048;-68
2022/06/22 11:56:22;;;;;;;3.00;1.10;;;;;;;;;;4918309;29;20058;-67
2022/06/22 11:58:59;;;;;;;3.33;1.00;;;;;;;;;;4913515;29;20074;-69
2022/06/22 12:01:34;;;;;;;2.80;1.00;;;;;;;;;;4918955;29;20058;-67
2022/06/22 12:04:34;;;;;;;2.60;0.77;;;;;;;;;;4932050;29;20063;-69
2022/06/22 12:07:09;;;;;;;3.65;1.10;;;;;;;;;;4880004;29;20055;-72
2022/06/22 12:09:43;;;;;;;3.17;1.00;;;;;;;;;;4893524;29;20060;-66
2022/06/22 12:12:27;;;;;;;2.10;0.98;;;;;;;;;;4905798;29;20126;-69
2022/06/22 12:15:07;;;;;;;3.03;1.00;;;;;;;;;;4932343;29;20051;-68
2022/06/22 12:17:40;;;;;;;2.45;1.33;;;;;;;;;;4937497;29;20055;-68
2022/06/22 12:20:15;;;;;;;2.05;0.80;;;;;;;;;;4941264;29;20059;-67
2022/06/22 12:22:50;;;;;;;2.17;0.98;;;;;;;;;;4942978;29;20063;-66
2022/06/22 12:25:23;;;;;;;2.50;1.00;;;;;;;;;;4948237;29;20138;-67
2022/06/22 12:27:57;;;;;;;2.50;1.02;;;;;;;;;;4941660;29;20051;-68
2022/06/22 12:30:36;;;;;;;2.75;0.90;;;;;;;;;;4947925;29;20061;-69
2022/06/22 12:33:05;;;;;;;3.97;0.95;;;;;;;;;;4933479;28;20142;-70
2022/06/22 12:35:36;;;;;;;2.92;0.90;;;;;;;;;;4931647;29;20142;-71
2022/06/22 12:38:06;;;;;;;0.98;0.80;;;;;;;;;;4921834;29;20056;-69
2022/06/22 12:40:37;;;;;;;1.92;1.08;;;;;;;;;;4913624;29;20147;-69
2022/06/22 12:43:18;;;;;;;1.80;1.00;;;;;;;;;;4892895;29;20082;-67
2022/06/22 12:45:52;;;;;;;2.05;0.95;;;;;;;;;;4911572;29;20116;-68
2022/06/22 12:48:37;;;;;;;2.80;0.95;;;;;;;;;;4917862;29;20055;-68
2022/06/22 12:51:12;;;;;;;1.02;0.80;;;;;;;;;;4931807;29;20061;-68
2022/06/22 12:53:40;;;;;;;1.73;1.00;;;;;;;;;;4933618;29;20122;-69
2022/06/22 12:56:09;;;;;;;;;;;;;;;;;;4948227;29;20063;-70
2022/06/22 12:58:40;;;;;;;2.72;0.80;;;;;;;;;;4936656;29;19926;-70
2022/06/22 13:01:08;;;;;;;2.75;0.95;;;;;;;;;;4932090;29;20071;-67
2022/06/22 13:03:34;;;;;;;;;;;;;;;;;;4931178;29;20059;-67
2022/06/22 13:06:01;;;;;;;2.30;0.93;;;;;;;;;;4943960;29;19926;-67
2022/06/22 13:08:29;;;;;;;3.58;1.13;;;;;;;;;;4925038;29;20059;-67
2022/06/22 13:10:58;;;;;;;1.70;0.80;;;;;;;;;;4931908;29;20179;-68
2022/06/22 13:13:30;;;;;;;2.63;1.10;;;;;;;;;;4926521;29;20047;-67
2022/06/22 13:15:58;;;;;;;2.25;1.05;;;;;;;;;;4948175;29;20133;-67
2022/06/22 13:18:32;;;;;;;2.03;0.95;;;;;;;;;;4941864;28;20138;-67
2022/06/22 13:21:04;;;;;;;1.70;0.90;;;;;;;;;;4947708;29;20052;-66
2022/06/22 13:23:37;;;;;;;1.60;0.90;;;;;;;;;;4943671;29;20047;-67
2022/06/22 13:26:08;;;;;;;1.52;0.90;;;;;;;;;;4912572;29;20052;-68
2022/06/22 13:28:39;;;;;;;2.38;1.00;;;;;;;;;;4912806;29;20067;-67
2022/06/22 13:31:10;;;;;;;1.80;0.82;;;;;;;;;;4945787;29;20066;-67
2022/06/22 13:33:41;;;;;;;1.52;0.95;;;;;;;;;;4931843;29;20055;-68
2022/06/22 13:36:10;;;;;;;2.88;0.95;;;;;;;;;;4940566;29;20064;-69
2022/06/22 13:38:53;;;;;;;2.13;1.10;;;;;;;;;;4938485;29;20055;-70
2022/06/22 13:41:25;;;;;;;0.93;0.70;;;;;;;;;;4923485;29;20058;-67
2022/06/22 13:44:07;;;;;;;3.35;1.20;;;;;;;;;;4931425;29;20055;-68
2022/06/22 13:46:42;;;;;;;1.45;0.75;;;;;;;;;;4929131;29;20134;-67
2022/06/22 13:49:12;;;;;;;1.40;0.80;;;;;;;;;;4932061;29;20059;-67
2022/06/22 13:51:51;;;;;;;2.38;0.93;;;;;;;;;;4929572;29;20130;-68
2022/06/22 13:54:38;;;;;;;1.08;0.70;;;;;;;;;;4935157;29;20183;-69
2022/06/22 13:57:08;;;;;;;4.45;0.90;;;;;;;;;;4948777;28;20051;-69
2022/06/22 13:59:39;;;;;;;2.38;0.85;;;;;;;;;;4934693;29;20059;-68
2022/06/22 14:02:14;;;;;;;3.03;1.20;;;;;;;;;;4946723;28;20057;-67
2022/06/22 14:04:45;;;;;;;2.30;1.00;;;;;;;;;;4934173;29;20130;-70
2022/06/22 14:07:14;;;;;;;2.58;0.90;;;;;;;;;;4929513;29;20058;-70
2022/06/22 14:09:42;;;;;;;3.97;1.50;;;;;;;;;;4935075;29;20055;-68
2022/06/22 14:12:11;;;;;;;3.40;1.15;;;;;;;;;;4929560;29;20110;-70
2022/06/22 14:14:43;;;;;;;2.00;1.02;;;;;;;;;;4931462;29;20056;-68
2022/06/22 14:17:12;;;;;;;1.67;0.88;;;;;;;;;;4939183;29;20055;-69
2022/06/22 14:19:44;;;;;;;1.52;0.73;;;;;;;;;;4951268;29;20074;-71
2022/06/22 14:22:19;;;;;;;2.53;0.82;;;;;;;;;;4934806;29;20043;-67
2022/06/22 14:24:46;;;;;;;1.98;1.05;;;;;;;;;;4934550;29;20054;-66
2022/06/22 14:27:23;;;;;;;2.47;0.98;;;;;;;;;;4929530;29;20130;-66
2022/06/22 14:30:07;;;;;;;3.10;1.10;;;;;;;;;;4934520;29;20059;-68
2022/06/22 14:32:41;;;;;;;3.78;0.93;;;;;;;;;;4928725;29;20074;-66
2022/06/22 14:35:22;;;;;;;2.10;1.08;;;;;;;;;;4934496;29;20098;-67
2022/06/22 14:37:50;;;;;;;4.25;1.60;;;;;;;;;;4928504;29;20074;-68
2022/06/22 14:40:22;;;;;;;7.47;1.20;;;;;;;;;;4933626;29;20055;-67
2022/06/22 14:42:50;;;;;;;2.88;0.90;;;;;;;;;;4929482;29;20055;-69
2022/06/22 14:45:19;;;;;;;2.15;0.98;;;;;;;;;;4934422;29;20134;-68
2022/06/22 14:47:50;;;;;;;2.28;1.08;;;;;;;;;;4928334;29;20054;-69
2022/06/22 14:50:20;;;;;;;1.67;0.90;;;;;;;;;;4914887;29;20131;-67
2022/06/22 14:52:49;;;;;;;2.95;1.13;;;;;;;;;;4920587;29;20098;-69
2022/06/22 14:55:19;;;;;;;2.03;1.10;;;;;;;;;;4949382;28;20126;-68
2022/06/22 14:57:51;;;;;;;1.42;0.95;;;;;;;;;;4941995;29;20055;-67
2022/06/22 15:00:24;;;;;;;3.20;1.20;;;;;;;;;;4949974;29;20066;-66
2022/06/22 15:02:55;;;;;;;2.25;1.00;;;;;;;;;;4942566;29;20111;-68
2022/06/22 15:05:26;;;;;;;1.42;0.88;;;;;;;;;;4932508;29;20059;-67
2022/06/22 15:07:55;;;;;;;1.92;1.08;;;;;;;;;;4928731;29;20050;-68
2022/06/22 15:10:26;;;;;;;3.50;1.00;;;;;;;;;;4934167;29;20059;-67
2022/06/22 15:12:57;;;;;;;2.90;0.90;;;;;;;;;;4944326;29;20114;-67
2022/06/22 15:15:30;;;;;;;3.72;1.05;;;;;;;;;;4948236;28;20086;-69
2022/06/22 15:18:02;;;;;;;3.13;1.10;;;;;;;;;;4944524;28;20116;-69
2022/06/22 15:20:34;;;;;;;3.45;1.05;;;;;;;;;;4913882;29;20044;-66
2022/06/22 15:23:04;;;;;;;2.42;1.10;;;;;;;;;;4930872;29;20051;-68
2022/06/22 15:25:36;;;;;;;1.88;1.10;;;;;;;;;;4945745;29;20063;-67
2022/06/22 15:28:06;;;;;;;3.40;1.10;;;;;;;;;;4948538;29;20138;-67
2022/06/22 15:30:36;;;;;;;4.10;1.00;;;;;;;;;;4942243;29;20070;-71
2022/06/22 15:33:09;;;;;;;2.22;0.90;;;;;;;;;;4949094;29;20062;-66
2022/06/22 15:35:40;;;;;;;2.05;0.85;;;;;;;;;;4929476;29;20065;-67